Weather reports worldwide

Advertisment
Crotone, Italy (16350): temperature & dewpoint: 15.06.2018 23:00:00 - 21.06.2018 23:00:00 (CEST)Crotone, Italy (16350): wind speed: 15.06.2018 23:00:00 - 21.06.2018 23:00:00 (CEST)Crotone, Italy (16350): wind direction: 15.06.2018 23:00:00 - 21.06.2018 23:00:00 (CEST)Crotone, Italy (16350): visibility: 15.06.2018 23:00:00 - 21.06.2018 23:00:00 (CEST)
Date & Time tt [°C] td [°C] ff [km/h] ff [kn] dd vv [km]
21.06.2018 23:00:00 - - - - - -
21.06.2018 22:00:00 - - - - - -
21.06.2018 21:00:00 - - - - - -
21.06.2018 20:00:00 24,0 17,0 13 7 SW 10
21.06.2018 19:00:00 26,0 16,0 16 9 SW 10
21.06.2018 18:00:00 27,0 15,0 21 11 SSW 10
21.06.2018 17:00:00 28,0 15,0 16 9 SSW 10
21.06.2018 16:00:00 29,0 13,0 18 10 SSW 10
21.06.2018 15:00:00 30,0 14,0 13 7 SSE 10
21.06.2018 14:00:00 29,0 15,0 11 6 SE 10
21.06.2018 13:00:00 29,0 15,0 11 6 SE 10
21.06.2018 12:00:00 29,0 13,0 8 4 - 10
21.06.2018 11:00:00 28,0 13,0 11 6 - 10
21.06.2018 10:00:00 27,0 14,0 9 5 NNE 10
21.06.2018 09:00:00 26,0 15,0 13 7 N 10
21.06.2018 08:00:00 24,0 15,0 11 6 N 10
21.06.2018 07:00:00 - - - - - -
21.06.2018 06:00:00 - - - - - -
21.06.2018 05:00:00 - - - - - -
21.06.2018 04:00:00 - - - - - -
21.06.2018 03:00:00 - - - - - -
21.06.2018 02:00:00 - - - - - -
21.06.2018 01:00:00 - - - - - -
21.06.2018 00:00:00 - - - - - -
20.06.2018 23:00:00 - - - - - -
20.06.2018 22:00:00 - - - - - -
20.06.2018 21:00:00 - - - - - -
20.06.2018 20:00:00 23,0 20,0 11 6 NNE 10
20.06.2018 19:00:00 26,0 15,0 9 5 SW 10
20.06.2018 18:00:00 27,0 15,0 11 6 ESE 10
20.06.2018 17:00:00 28,0 15,0 13 7 E 10
20.06.2018 16:00:00 28,0 16,0 11 6 NE 10
20.06.2018 15:00:00 27,0 18,0 15 8 NE 10
20.06.2018 14:00:00 28,0 17,0 18 10 NE 10
20.06.2018 13:00:00 28,0 19,0 22 12 NNE 10
20.06.2018 12:00:00 28,0 18,0 21 11 NE 10
20.06.2018 11:00:00 27,0 18,0 21 11 NE 10
20.06.2018 10:00:00 26,0 17,0 24 13 NNE 10
20.06.2018 09:00:00 26,0 16,0 21 11 NNE 10
20.06.2018 08:00:00 24,0 16,0 16 9 N 10
20.06.2018 07:00:00 - - - - - -
20.06.2018 06:00:00 - - - - - -
20.06.2018 05:00:00 - - - - - -
20.06.2018 04:00:00 - - - - - -
20.06.2018 03:00:00 - - - - - -
20.06.2018 02:00:00 - - - - - -
20.06.2018 01:00:00 - - - - - -
20.06.2018 00:00:00 - - - - - -
19.06.2018 23:00:00 - - - - - -
19.06.2018 22:00:00 - - - - - -
19.06.2018 21:00:00 - - - - - -
19.06.2018 20:00:00 25,0 17,0 16 9 NNE 10
19.06.2018 19:00:00 27,0 16,0 22 12 NNE 10
19.06.2018 18:00:00 27,0 15,0 24 13 NNE 10
19.06.2018 17:00:00 28,0 14,0 31 17 NNE 10
19.06.2018 16:00:00 29,0 15,0 31 17 N 10
19.06.2018 15:00:00 29,0 15,0 35 19 NNE 10
19.06.2018 14:00:00 29,0 15,0 34 18 NNE 10
19.06.2018 13:00:00 28,0 16,0 34 18 NNE 10
19.06.2018 12:00:00 28,0 17,0 26 14 NNE 10
19.06.2018 11:00:00 27,0 18,0 26 14 N 10
19.06.2018 10:00:00 27,0 17,0 26 14 N 10
19.06.2018 09:00:00 26,0 16,0 18 10 N 10
19.06.2018 08:00:00 24,0 15,0 13 7 N 10
19.06.2018 07:00:00 - - - - - -
19.06.2018 06:00:00 - - - - - -
19.06.2018 05:00:00 - - - - - -
19.06.2018 04:00:00 - - - - - -
19.06.2018 03:00:00 - - - - - -
19.06.2018 02:00:00 - - - - - -
19.06.2018 01:00:00 - - - - - -
19.06.2018 00:00:00 - - - - - -
18.06.2018 23:00:00 - - - - - -
18.06.2018 22:00:00 - - - - - -
18.06.2018 21:00:00 - - - - - -
18.06.2018 20:00:00 24,0 15,0 11 6 N 10
18.06.2018 19:00:00 25,0 14,0 9 5 NNE 10
18.06.2018 18:00:00 27,0 14,0 8 4 WSW 10
18.06.2018 17:00:00 26,0 15,0 9 5 SSW 10
18.06.2018 16:00:00 27,0 16,0 11 6 S 10
18.06.2018 15:00:00 28,0 16,0 15 8 SSW 10
18.06.2018 14:00:00 26,0 14,0 8 4 E 10
18.06.2018 13:00:00 27,0 15,0 9 5 NE 10
18.06.2018 12:00:00 27,0 15,0 13 7 NE 10
18.06.2018 11:00:00 27,0 15,0 13 7 NE 10
18.06.2018 10:00:00 27,0 14,0 15 8 NE 10
18.06.2018 09:00:00 26,0 14,0 13 7 N 10
18.06.2018 08:00:00 24,0 15,0 8 4 NW 10
18.06.2018 07:00:00 - - - - - -
18.06.2018 06:00:00 - - - - - -
18.06.2018 05:00:00 - - - - - -
18.06.2018 04:00:00 - - - - - -
18.06.2018 03:00:00 - - - - - -
18.06.2018 02:00:00 - - - - - -
18.06.2018 01:00:00 - - - - - -
18.06.2018 00:00:00 - - - - - -
17.06.2018 23:00:00 - - - - - -
17.06.2018 22:00:00 - - - - - -
17.06.2018 21:00:00 - - - - - -
17.06.2018 20:00:00 23,0 18,0 9 5 W 10
17.06.2018 19:00:00 24,0 17,0 13 7 SW 10
17.06.2018 18:00:00 28,0 14,0 18 10 WSW 10
17.06.2018 17:00:00 27,0 14,0 24 13 WSW 10
17.06.2018 16:00:00 26,0 16,0 18 10 SW 10
17.06.2018 15:00:00 26,0 15,0 13 7 S 10
17.06.2018 14:00:00 24,0 17,0 21 11 SW 10
17.06.2018 13:00:00 26,0 16,0 9 5 SE 10
17.06.2018 12:00:00 26,0 16,0 8 4 S 10
17.06.2018 11:00:00 26,0 16,0 8 4 ESE 10
17.06.2018 10:00:00 26,0 14,0 9 5 N 10
17.06.2018 09:00:00 25,0 16,0 5 3 - 10
17.06.2018 08:00:00 23,0 16,0 4 2 - 10
17.06.2018 07:00:00 - - - - - -
17.06.2018 06:00:00 - - - - - -
17.06.2018 05:00:00 - - - - - -
17.06.2018 04:00:00 - - - - - -
17.06.2018 03:00:00 - - - - - -
17.06.2018 02:00:00 - - - - - -
17.06.2018 01:00:00 - - - - - -
17.06.2018 00:00:00 - - - - - -
16.06.2018 23:00:00 - - - - - -
16.06.2018 22:00:00 - - - - - -
16.06.2018 21:00:00 - - - - - -
16.06.2018 20:00:00 - - - - - -
16.06.2018 19:00:00 20,0 18,0 8 4 WNW 10
16.06.2018 18:00:00 21,0 18,0 9 5 WSW 10
16.06.2018 17:00:00 21,0 18,0 11 6 SW 10
16.06.2018 16:00:00 20,0 19,0 21 11 SSW 10
16.06.2018 15:00:00 25,0 14,0 24 13 NE 10
16.06.2018 14:00:00 25,0 15,0 22 12 NNE 10
16.06.2018 13:00:00 26,0 15,0 26 14 NNE 10
16.06.2018 12:00:00 27,0 14,0 22 12 N 10
16.06.2018 11:00:00 26,0 13,0 24 13 N 10
16.06.2018 10:00:00 26,0 13,0 15 8 N 10
16.06.2018 09:00:00 25,0 14,0 15 8 N 10
16.06.2018 08:00:00 22,0 15,0 9 5 N 10
16.06.2018 07:00:00 21,0 15,0 8 4 WNW 10
16.06.2018 06:00:00 - - - - - -
16.06.2018 05:00:00 - - - - - -
16.06.2018 04:00:00 - - - - - -
16.06.2018 03:00:00 - - - - - -
16.06.2018 02:00:00 - - - - - -
16.06.2018 01:00:00 - - - - - -
16.06.2018 00:00:00 - - - - - -
15.06.2018 23:00:00 - - - - - -

tt = temperature
td = dewpoint
ff = wind speed
dd = wind direction
vv = visibility

Next stations